createdAt,value
2018-07-24T00:00:21.901Z,0.00
2018-07-24T00:01:21.904Z,0.00
2018-07-24T00:02:21.706Z,0.00
2018-07-24T00:03:21.722Z,0.00
2018-07-24T00:04:21.739Z,0.00
2018-07-24T00:05:21.921Z,0.00
2018-07-24T00:06:21.722Z,0.00
2018-07-24T00:07:21.929Z,0.00
2018-07-24T00:08:21.931Z,0.00
2018-07-24T00:09:21.949Z,0.00
2018-07-24T00:10:21.744Z,0.00
2018-07-24T00:11:21.739Z,0.00
2018-07-24T00:12:21.946Z,0.00
2018-07-24T00:13:21.759Z,0.00
2018-07-24T00:14:21.750Z,0.00
2018-07-24T00:15:21.971Z,0.00
2018-07-24T00:16:21.758Z,0.00
2018-07-24T00:17:21.764Z,0.00
2018-07-24T00:18:21.766Z,0.00
2018-07-24T00:19:21.771Z,0.00
2018-07-24T00:20:21.977Z,0.00
2018-07-24T00:21:21.979Z,0.00
2018-07-24T00:22:21.793Z,0.00
2018-07-24T00:23:21.784Z,0.00
2018-07-24T00:24:21.993Z,0.00
2018-07-24T00:25:21.791Z,0.00
2018-07-24T00:26:21.794Z,0.00
2018-07-24T00:27:21.802Z,0.00
2018-07-24T00:28:22.009Z,0.00
2018-07-24T00:29:21.821Z,0.00
2018-07-24T00:30:22.016Z,0.00
2018-07-24T00:31:21.815Z,0.00
2018-07-24T00:32:22.042Z,0.00
2018-07-24T00:33:21.825Z,0.00
2018-07-24T00:34:21.841Z,0.00
2018-07-24T00:35:21.831Z,0.00
2018-07-24T00:36:21.859Z,0.00
2018-07-24T00:37:21.836Z,0.00
2018-07-24T00:38:21.867Z,0.00
2018-07-24T00:39:21.845Z,0.00
2018-07-24T00:40:21.857Z,0.00
2018-07-24T00:41:21.865Z,0.00
2018-07-24T00:42:21.882Z,0.00
2018-07-24T00:43:22.062Z,0.00
2018-07-24T00:44:22.065Z,0.00
2018-07-24T00:45:22.068Z,0.00
2018-07-24T00:46:22.074Z,0.00
2018-07-24T00:47:21.898Z,0.00
2018-07-24T00:48:22.077Z,0.00
2018-07-24T00:49:21.890Z,0.00
2018-07-24T00:50:21.898Z,0.00
2018-07-24T00:51:22.115Z,0.00
2018-07-24T00:52:21.921Z,0.00
2018-07-24T00:53:21.897Z,0.00
2018-07-24T00:54:21.902Z,0.00
2018-07-24T00:55:21.906Z,0.00
2018-07-24T00:56:21.910Z,0.00
2018-07-24T00:57:21.912Z,0.00
2018-07-24T00:58:21.912Z,0.00
2018-07-24T00:59:21.937Z,0.00
2018-07-24T01:00:22.125Z,0.00
2018-07-24T01:01:21.926Z,0.00
2018-07-24T01:02:21.953Z,0.00
2018-07-24T01:03:21.945Z,0.00
2018-07-24T01:04:21.933Z,0.00
2018-07-24T01:05:22.150Z,0.00
2018-07-24T01:06:22.142Z,0.00
2018-07-24T01:07:22.157Z,0.00
2018-07-24T01:08:21.960Z,0.00
2018-07-24T01:09:21.953Z,0.00
2018-07-24T01:10:21.985Z,0.00
2018-07-24T01:11:21.971Z,0.00
2018-07-24T01:12:21.977Z,0.00
2018-07-24T01:13:21.977Z,0.00
2018-07-24T01:14:21.980Z,0.00
2018-07-24T01:15:21.988Z,0.00
2018-07-24T01:16:22.179Z,0.00
2018-07-24T01:17:21.982Z,0.00
2018-07-24T01:18:22.204Z,0.00
2018-07-24T01:19:22.001Z,0.00
2018-07-24T01:20:22.006Z,0.00
2018-07-24T01:21:22.011Z,0.00
2018-07-24T01:22:22.009Z,0.00
2018-07-24T01:23:22.013Z,0.00
2018-07-24T01:24:22.034Z,0.00
2018-07-24T01:25:22.013Z,0.00
2018-07-24T01:26:22.227Z,0.00
2018-07-24T01:27:22.017Z,0.00
2018-07-24T01:28:22.020Z,0.00
2018-07-24T01:29:22.022Z,0.00
2018-07-24T01:30:22.026Z,0.00
2018-07-24T01:31:22.256Z,0.00
2018-07-24T01:32:22.037Z,0.00
2018-07-24T01:33:22.039Z,0.00
2018-07-24T01:34:22.041Z,0.00
2018-07-24T01:35:22.045Z,0.00
2018-07-24T01:36:22.046Z,0.00
2018-07-24T01:37:22.052Z,0.00
2018-07-24T01:38:22.053Z,0.00
2018-07-24T01:39:22.272Z,0.00
2018-07-24T01:40:22.069Z,0.00
2018-07-24T01:41:22.075Z,0.00
2018-07-24T01:42:22.067Z,0.00
2018-07-24T01:43:22.074Z,0.00
2018-07-24T01:44:22.086Z,0.00
2018-07-24T01:45:22.077Z,0.00
2018-07-24T01:46:22.080Z,0.00
2018-07-24T01:47:22.298Z,0.00
2018-07-24T01:48:22.092Z,0.00
2018-07-24T01:49:22.106Z,0.00
2018-07-24T01:50:22.097Z,0.00
2018-07-24T01:51:22.099Z,0.00
2018-07-24T01:52:22.314Z,0.00
2018-07-24T01:53:22.104Z,0.00
2018-07-24T01:54:22.123Z,0.00
2018-07-24T01:55:22.111Z,0.00
2018-07-24T01:56:22.124Z,0.00
2018-07-24T01:57:22.117Z,0.00
2018-07-24T01:58:22.118Z,0.00
2018-07-24T01:59:22.124Z,0.00
2018-07-24T02:00:22.129Z,0.00
2018-07-24T02:01:22.141Z,0.00
2018-07-24T02:02:22.347Z,0.00
2018-07-24T02:03:22.151Z,0.00
2018-07-24T02:04:22.154Z,0.00
2018-07-24T02:05:22.348Z,0.00
2018-07-24T02:06:22.156Z,0.00
2018-07-24T02:07:22.150Z,0.00
2018-07-24T02:08:22.164Z,0.00
2018-07-24T02:09:22.160Z,0.00
2018-07-24T02:10:22.184Z,0.00
2018-07-24T02:11:22.164Z,0.00
2018-07-24T02:12:22.184Z,0.00
2018-07-24T02:13:22.174Z,0.00
2018-07-24T02:14:22.192Z,0.00
2018-07-24T02:15:22.176Z,0.00
2018-07-24T02:16:22.386Z,0.00
2018-07-24T02:17:22.182Z,0.00
2018-07-24T02:18:22.188Z,0.00
2018-07-24T02:19:22.202Z,0.00
2018-07-24T02:20:22.397Z,0.00
2018-07-24T02:21:22.198Z,0.00
2018-07-24T02:22:22.199Z,0.00
2018-07-24T02:23:22.406Z,0.00
2018-07-24T02:24:22.206Z,0.00
2018-07-24T02:25:22.213Z,0.00
2018-07-24T02:26:22.228Z,0.00
2018-07-24T02:27:22.218Z,0.00
2018-07-24T02:28:22.219Z,0.00
2018-07-24T02:29:22.225Z,0.00
2018-07-24T02:30:22.429Z,0.00
2018-07-24T02:31:22.434Z,0.00
2018-07-24T02:32:22.237Z,0.00
2018-07-24T02:33:22.439Z,0.00
2018-07-24T02:34:22.239Z,0.00
2018-07-24T02:35:22.246Z,0.00
2018-07-24T02:36:22.243Z,0.00
2018-07-24T02:37:22.248Z,0.00
2018-07-24T02:38:22.455Z,0.00
2018-07-24T02:39:22.254Z,0.00
2018-07-24T02:40:22.268Z,0.00
2018-07-24T02:41:22.271Z,0.00
2018-07-24T02:42:22.290Z,0.00
2018-07-24T02:43:22.268Z,0.00
2018-07-24T02:44:22.280Z,0.00
2018-07-24T02:45:22.274Z,0.00
2018-07-24T02:46:22.275Z,0.00
2018-07-24T02:47:22.281Z,0.00
2018-07-24T02:48:22.299Z,0.00
2018-07-24T02:49:22.312Z,0.00
2018-07-24T02:50:22.287Z,0.00
2018-07-24T02:51:22.306Z,0.00
2018-07-24T02:52:22.296Z,0.00
2018-07-24T02:53:22.329Z,0.00
2018-07-24T02:54:22.505Z,0.00
2018-07-24T02:55:22.306Z,0.00
2018-07-24T02:56:22.333Z,0.00
2018-07-24T02:57:22.524Z,0.00
2018-07-24T02:58:22.332Z,0.00
2018-07-24T02:59:22.337Z,0.00
2018-07-24T03:00:22.321Z,0.00
2018-07-24T03:01:22.326Z,0.00
2018-07-24T03:02:22.527Z,0.00
2018-07-24T03:03:22.546Z,0.00
2018-07-24T03:04:22.332Z,0.00
2018-07-24T03:05:22.349Z,0.00
2018-07-24T03:06:22.547Z,0.00
2018-07-24T03:07:22.351Z,0.00
2018-07-24T03:08:22.358Z,0.00
2018-07-24T03:09:22.348Z,0.00
2018-07-24T03:10:22.360Z,0.00
2018-07-24T03:11:22.361Z,0.00
2018-07-24T03:12:22.355Z,0.00
2018-07-24T03:13:22.360Z,0.00
2018-07-24T03:14:22.563Z,0.00
2018-07-24T03:15:22.368Z,0.00
2018-07-24T03:16:22.456Z,0.00
2018-07-24T03:17:22.372Z,0.00
2018-07-24T03:18:22.376Z,0.00
2018-07-24T03:19:22.393Z,0.00
2018-07-24T03:20:22.390Z,0.00
2018-07-24T03:21:22.384Z,0.00
2018-07-24T03:22:22.395Z,0.00
2018-07-24T03:23:22.387Z,0.00
2018-07-24T03:24:22.393Z,0.00
2018-07-24T03:25:22.396Z,0.00
2018-07-24T03:26:22.399Z,0.00
2018-07-24T03:27:22.602Z,0.00
2018-07-24T03:28:22.420Z,0.00
2018-07-24T03:29:22.620Z,0.00
2018-07-24T03:30:22.411Z,0.00
2018-07-24T03:31:22.413Z,0.00
2018-07-24T03:32:22.426Z,0.00
2018-07-24T03:33:22.418Z,0.00
2018-07-24T03:34:22.445Z,0.00
2018-07-24T03:35:22.432Z,0.00
2018-07-24T03:36:22.425Z,0.00
2018-07-24T03:37:22.429Z,0.00
2018-07-24T03:38:22.442Z,0.00
2018-07-24T03:39:22.434Z,0.00
2018-07-24T03:40:22.438Z,0.00
2018-07-24T03:41:22.641Z,0.00
2018-07-24T03:42:22.441Z,0.00
2018-07-24T03:43:22.447Z,0.00
2018-07-24T03:44:22.462Z,0.00
2018-07-24T03:45:22.453Z,0.00
2018-07-24T03:46:22.456Z,0.00
2018-07-24T03:47:22.671Z,0.00
2018-07-24T03:48:22.471Z,0.00
2018-07-24T03:49:22.475Z,0.00
2018-07-24T03:50:22.678Z,0.00
2018-07-24T03:51:22.687Z,0.00
2018-07-24T03:52:22.498Z,0.00
2018-07-24T03:53:22.490Z,0.00
2018-07-24T03:54:22.478Z,0.00
2018-07-24T03:55:22.479Z,0.00
2018-07-24T03:56:22.500Z,0.00
2018-07-24T03:57:22.484Z,0.00
2018-07-24T03:58:22.487Z,0.00
2018-07-24T03:59:22.490Z,0.00
2018-07-24T04:00:22.496Z,0.00
2018-07-24T04:01:22.497Z,0.00
2018-07-24T04:02:22.550Z,0.00
2018-07-24T04:03:22.513Z,0.00
2018-07-24T04:04:22.708Z,0.00
2018-07-24T04:05:22.509Z,0.00
2018-07-24T04:06:22.513Z,0.00
2018-07-24T04:07:22.720Z,0.00
2018-07-24T04:08:22.515Z,0.00
2018-07-24T04:09:22.522Z,0.00
2018-07-24T04:10:22.536Z,0.00
2018-07-24T04:11:22.528Z,0.00
2018-07-24T04:12:22.527Z,0.00
2018-07-24T04:13:22.529Z,0.00
2018-07-24T04:14:22.533Z,0.00
2018-07-24T04:15:22.546Z,0.00
2018-07-24T04:16:22.750Z,0.00
2018-07-24T04:17:22.554Z,0.00
2018-07-24T04:18:22.551Z,0.00
2018-07-24T04:19:22.549Z,0.00
2018-07-24T04:20:22.755Z,0.00
2018-07-24T04:21:22.552Z,0.00
2018-07-24T04:22:22.554Z,0.00
2018-07-24T04:23:22.761Z,0.00
2018-07-24T04:24:22.766Z,0.00
2018-07-24T04:25:22.767Z,0.00
2018-07-24T04:26:22.581Z,0.00
2018-07-24T04:27:22.584Z,0.00
2018-07-24T04:28:22.572Z,0.00
2018-07-24T04:29:22.588Z,0.00
2018-07-24T04:30:22.588Z,0.00
2018-07-24T04:31:22.583Z,0.00
2018-07-24T04:32:22.586Z,0.00
2018-07-24T04:33:22.822Z,0.00
2018-07-24T04:34:22.792Z,0.00
2018-07-24T04:35:22.605Z,0.00
2018-07-24T04:36:22.597Z,0.00
2018-07-24T04:37:22.611Z,0.00
2018-07-24T04:38:22.804Z,0.00
2018-07-24T04:39:22.608Z,0.00
2018-07-24T04:40:22.619Z,0.00
2018-07-24T04:41:22.610Z,0.00
2018-07-24T04:42:22.629Z,0.00
2018-07-24T04:43:22.618Z,0.00
2018-07-24T04:44:22.618Z,0.00
2018-07-24T04:45:22.651Z,0.00
2018-07-24T04:46:22.623Z,0.00
2018-07-24T04:47:22.627Z,0.00
2018-07-24T04:48:22.642Z,0.00
2018-07-24T04:49:22.644Z,0.00
2018-07-24T04:50:22.652Z,0.00
2018-07-24T04:51:22.639Z,5.63
2018-07-24T04:52:22.643Z,5.63
2018-07-24T04:53:22.645Z,5.63
2018-07-24T04:54:22.670Z,5.63
2018-07-24T04:55:22.651Z,5.63
2018-07-24T04:56:22.666Z,5.63
2018-07-24T04:57:22.860Z,5.63
2018-07-24T04:58:22.659Z,5.63
2018-07-24T04:59:22.664Z,5.63
2018-07-24T05:00:22.680Z,5.63
2018-07-24T05:01:22.681Z,5.63
2018-07-24T05:02:22.683Z,5.63
2018-07-24T05:03:22.782Z,5.63
2018-07-24T05:04:22.896Z,5.63
2018-07-24T05:05:22.701Z,5.63
2018-07-24T05:06:22.901Z,5.63
2018-07-24T05:07:22.906Z,5.63
2018-07-24T05:08:22.692Z,5.63
2018-07-24T05:09:22.708Z,5.63
2018-07-24T05:10:22.705Z,5.63
2018-07-24T05:11:22.700Z,5.63
2018-07-24T05:12:22.724Z,5.63
2018-07-24T05:13:22.724Z,5.63
2018-07-24T05:14:22.721Z,5.63
2018-07-24T05:15:22.728Z,5.63
2018-07-24T05:16:22.719Z,5.63
2018-07-24T05:17:22.752Z,5.63
2018-07-24T05:18:22.927Z,5.63
2018-07-24T05:19:22.931Z,5.63
2018-07-24T05:20:22.731Z,5.63
2018-07-24T05:21:22.748Z,5.63
2018-07-24T05:22:22.752Z,5.63
2018-07-24T05:23:22.739Z,5.63
2018-07-24T05:24:22.742Z,5.63
2018-07-24T05:25:22.747Z,5.63
2018-07-24T05:26:22.767Z,5.63
2018-07-24T05:27:22.958Z,5.63
2018-07-24T05:28:22.759Z,11.25
2018-07-24T05:29:22.771Z,11.25
2018-07-24T05:30:22.971Z,11.25
2018-07-24T05:31:22.792Z,11.25
2018-07-24T05:32:22.772Z,11.25
2018-07-24T05:33:22.778Z,11.25
2018-07-24T05:34:22.790Z,11.25
2018-07-24T05:35:22.784Z,11.25
2018-07-24T05:36:22.786Z,11.25
2018-07-24T05:37:22.995Z,11.25
2018-07-24T05:38:22.793Z,11.25
2018-07-24T05:39:22.798Z,11.25
2018-07-24T05:40:22.800Z,11.25
2018-07-24T05:41:22.805Z,11.25
2018-07-24T05:42:22.808Z,11.25
2018-07-24T05:43:22.813Z,11.25
2018-07-24T05:44:22.815Z,11.25
2018-07-24T05:45:22.833Z,11.25
2018-07-24T05:46:22.824Z,11.25
2018-07-24T05:47:22.827Z,11.25
2018-07-24T05:48:22.831Z,11.25
2018-07-24T05:49:22.846Z,11.25
2018-07-24T05:50:22.839Z,16.88
2018-07-24T05:51:22.843Z,16.88
2018-07-24T05:52:22.846Z,16.88
2018-07-24T05:53:22.851Z,16.88
2018-07-24T05:54:22.854Z,16.88
2018-07-24T05:55:22.857Z,16.88
2018-07-24T05:56:22.860Z,16.88
2018-07-24T05:57:22.867Z,16.88
2018-07-24T05:58:22.869Z,16.88
2018-07-24T05:59:22.884Z,16.88
2018-07-24T06:00:22.891Z,16.88
2018-07-24T06:01:22.882Z,16.88
2018-07-24T06:02:22.885Z,16.88
2018-07-24T06:03:22.890Z,16.88
2018-07-24T06:04:22.892Z,16.88
2018-07-24T06:05:22.900Z,16.88
2018-07-24T06:06:22.901Z,16.88
2018-07-24T06:07:22.945Z,16.88
2018-07-24T06:08:22.929Z,16.88
2018-07-24T06:09:22.916Z,16.88
2018-07-24T06:10:22.932Z,16.88
2018-07-24T06:11:22.923Z,16.88
2018-07-24T06:12:22.937Z,16.88
2018-07-24T06:13:22.962Z,16.88
2018-07-24T06:14:22.962Z,16.88
2018-07-24T06:15:22.943Z,16.88
2018-07-24T06:16:22.964Z,22.50
2018-07-24T06:17:22.983Z,28.13
2018-07-24T06:18:22.954Z,16.88
2018-07-24T06:19:22.986Z,16.88
2018-07-24T06:20:22.975Z,16.88
2018-07-24T06:21:22.970Z,16.88
2018-07-24T06:22:22.974Z,16.88
2018-07-24T06:23:22.986Z,16.88
2018-07-24T06:24:22.995Z,16.88
2018-07-24T06:25:22.995Z,16.88
2018-07-24T06:26:23.216Z,16.88
2018-07-24T06:27:23.017Z,16.88
2018-07-24T06:28:23.002Z,16.88
2018-07-24T06:29:23.058Z,16.88
2018-07-24T06:30:23.009Z,45.00
2018-07-24T06:31:23.013Z,22.50
2018-07-24T06:32:23.033Z,16.88
2018-07-24T06:33:23.043Z,67.50
2018-07-24T06:34:23.029Z,67.50
2018-07-24T06:35:23.042Z,50.63
2018-07-24T06:36:23.045Z,50.63
2018-07-24T06:37:23.055Z,39.38
2018-07-24T06:38:23.261Z,22.50
2018-07-24T06:39:23.050Z,16.88
2018-07-24T06:40:23.055Z,16.88
2018-07-24T06:41:23.058Z,16.88
2018-07-24T06:42:23.064Z,16.88
2018-07-24T06:43:23.070Z,16.88
2018-07-24T06:44:23.315Z,39.38
2018-07-24T06:45:23.080Z,135.00
2018-07-24T06:46:23.297Z,73.13
2018-07-24T06:47:23.089Z,22.50
2018-07-24T06:48:23.094Z,22.50
2018-07-24T06:49:23.307Z,16.88
2018-07-24T06:50:23.107Z,16.88
2018-07-24T06:51:23.127Z,16.88
2018-07-24T06:52:23.113Z,16.88
2018-07-24T06:53:23.118Z,16.88
2018-07-24T06:54:23.128Z,16.88
2018-07-24T06:55:23.131Z,16.88
2018-07-24T06:56:23.365Z,16.88
2018-07-24T06:57:23.357Z,16.88
2018-07-24T06:58:23.346Z,16.88
2018-07-24T06:59:23.159Z,16.88
2018-07-24T07:00:23.155Z,16.88
2018-07-24T07:01:23.364Z,16.88
2018-07-24T07:02:23.165Z,16.88
2018-07-24T07:03:23.228Z,16.88
2018-07-24T07:04:23.378Z,16.88
2018-07-24T07:05:23.182Z,56.25
2018-07-24T07:06:23.184Z,78.75
2018-07-24T07:07:23.214Z,22.50
2018-07-24T07:08:23.199Z,22.50
2018-07-24T07:09:23.415Z,22.50
2018-07-24T07:10:23.326Z,16.88
2018-07-24T07:11:23.222Z,16.88
2018-07-24T07:12:23.217Z,16.88
2018-07-24T07:13:23.277Z,16.88
2018-07-24T07:14:23.227Z,22.50
2018-07-24T07:15:23.435Z,22.50
2018-07-24T07:16:23.241Z,22.50
2018-07-24T07:17:23.245Z,22.50
2018-07-24T07:18:23.247Z,157.50
2018-07-24T07:19:23.254Z,168.75
2018-07-24T07:20:23.467Z,33.75
2018-07-24T07:21:23.266Z,28.13
2018-07-24T07:22:23.271Z,28.13
2018-07-24T07:23:23.301Z,22.50
2018-07-24T07:24:23.293Z,28.13
2018-07-24T07:25:23.287Z,28.13
2018-07-24T07:26:23.506Z,28.13
2018-07-24T07:27:23.298Z,28.13
2018-07-24T07:28:23.306Z,22.50
2018-07-24T07:29:23.324Z,22.50
2018-07-24T07:30:23.315Z,22.50
2018-07-24T07:31:23.333Z,22.50
2018-07-24T07:32:23.430Z,22.50
2018-07-24T07:33:23.335Z,22.50
2018-07-24T07:34:23.539Z,22.50
2018-07-24T07:35:23.555Z,22.50
2018-07-24T07:36:23.365Z,22.50
2018-07-24T07:37:23.356Z,22.50
2018-07-24T07:38:23.391Z,22.50
2018-07-24T07:39:23.383Z,22.50
2018-07-24T07:40:23.387Z,22.50
2018-07-24T07:41:23.580Z,22.50
2018-07-24T07:42:23.402Z,22.50
2018-07-24T07:43:23.408Z,22.50
2018-07-24T07:44:23.397Z,22.50
2018-07-24T07:45:23.491Z,22.50
2018-07-24T07:46:23.407Z,22.50
2018-07-24T07:47:23.424Z,22.50
2018-07-24T07:48:23.637Z,22.50
2018-07-24T07:49:23.640Z,22.50
2018-07-24T07:50:23.636Z,22.50
2018-07-24T07:51:23.471Z,22.50
2018-07-24T07:52:23.673Z,22.50
2018-07-24T07:53:23.449Z,22.50
2018-07-24T07:54:23.455Z,28.13
2018-07-24T07:55:23.489Z,101.25
2018-07-24T07:56:23.479Z,528.75
2018-07-24T07:57:23.504Z,635.63
2018-07-24T07:58:23.489Z,157.50
2018-07-24T07:59:23.691Z,39.38
2018-07-24T08:00:23.506Z,33.75
2018-07-24T08:01:23.505Z,33.75
2018-07-24T08:02:23.509Z,33.75
2018-07-24T08:03:23.712Z,39.38
2018-07-24T08:04:23.657Z,33.75
2018-07-24T08:05:23.523Z,123.75
2018-07-24T08:06:23.543Z,163.13
2018-07-24T08:07:23.537Z,61.88
2018-07-24T08:08:23.765Z,33.75
2018-07-24T08:09:23.559Z,33.75
2018-07-24T08:10:23.557Z,33.75
2018-07-24T08:11:23.764Z,33.75
2018-07-24T08:12:23.616Z,28.13
2018-07-24T08:13:23.576Z,28.13
2018-07-24T08:14:23.591Z,33.75
2018-07-24T08:15:23.598Z,33.75
2018-07-24T08:16:23.595Z,33.75
2018-07-24T08:17:23.604Z,33.75
2018-07-24T08:18:23.823Z,28.13
2018-07-24T08:19:23.819Z,28.13
2018-07-24T08:20:23.622Z,33.75
2018-07-24T08:21:23.629Z,28.13
2018-07-24T08:22:23.698Z,33.75
2018-07-24T08:23:23.858Z,33.75
2018-07-24T08:24:23.668Z,28.13
2018-07-24T08:25:23.665Z,28.13
2018-07-24T08:26:23.660Z,28.13
2018-07-24T08:27:23.677Z,28.13
2018-07-24T08:28:23.674Z,28.13
2018-07-24T08:29:23.692Z,28.13
2018-07-24T08:30:23.688Z,28.13
2018-07-24T08:31:23.705Z,28.13
2018-07-24T08:32:23.703Z,28.13
2018-07-24T08:33:23.709Z,28.13
2018-07-24T08:34:23.715Z,28.13
2018-07-24T08:35:23.727Z,28.13
2018-07-24T08:36:23.727Z,28.13
2018-07-24T08:37:23.737Z,28.13
2018-07-24T08:38:23.959Z,28.13
2018-07-24T08:39:23.750Z,112.50
2018-07-24T08:40:23.958Z,129.38
2018-07-24T08:41:23.976Z,33.75
2018-07-24T08:42:23.770Z,28.13
2018-07-24T08:43:23.776Z,28.13
2018-07-24T08:44:23.782Z,28.13
2018-07-24T08:45:23.992Z,28.13
2018-07-24T08:46:24.013Z,28.13
2018-07-24T08:47:23.807Z,22.50
2018-07-24T08:48:23.810Z,22.50
2018-07-24T08:49:23.816Z,28.13
2018-07-24T08:50:23.822Z,22.50
2018-07-24T08:51:23.830Z,22.50
2018-07-24T08:52:24.080Z,22.50
2018-07-24T08:53:24.026Z,22.50
2018-07-24T08:54:24.066Z,22.50
2018-07-24T08:55:24.346Z,22.50
2018-07-24T08:56:23.879Z,22.50
2018-07-24T08:57:23.872Z,22.50
2018-07-24T08:58:23.891Z,22.50
2018-07-24T08:59:24.089Z,22.50
2018-07-24T09:00:23.891Z,22.50
2018-07-24T09:01:23.940Z,22.50
2018-07-24T09:02:23.912Z,22.50
2018-07-24T09:03:24.004Z,22.50
2018-07-24T09:04:24.149Z,22.50
2018-07-24T09:05:23.927Z,22.50
2018-07-24T09:06:23.933Z,22.50
2018-07-24T09:07:23.949Z,22.50
2018-07-24T09:08:24.160Z,22.50
2018-07-24T09:09:23.963Z,22.50
2018-07-24T09:10:24.174Z,22.50
2018-07-24T09:11:23.967Z,22.50
2018-07-24T09:12:23.972Z,22.50
2018-07-24T09:13:23.981Z,22.50
2018-07-24T09:14:23.986Z,22.50
2018-07-24T09:15:24.049Z,22.50
2018-07-24T09:16:23.999Z,22.50
2018-07-24T09:17:24.226Z,22.50
2018-07-24T09:18:24.227Z,22.50
2018-07-24T09:19:24.223Z,22.50
2018-07-24T09:20:24.028Z,22.50
2018-07-24T09:21:24.237Z,22.50
2018-07-24T09:22:24.041Z,16.88
2018-07-24T09:23:24.059Z,16.88
2018-07-24T09:24:24.056Z,16.88
2018-07-24T09:25:24.266Z,16.88
2018-07-24T09:26:24.293Z,16.88
2018-07-24T09:27:24.081Z,16.88
2018-07-24T09:28:24.291Z,16.88
2018-07-24T09:29:24.089Z,16.88
2018-07-24T09:30:24.097Z,16.88
2018-07-24T09:31:24.114Z,16.88
2018-07-24T09:32:24.329Z,16.88
2018-07-24T09:33:24.134Z,16.88
2018-07-24T09:34:24.124Z,16.88
2018-07-24T09:35:24.131Z,16.88
2018-07-24T09:36:24.344Z,16.88
2018-07-24T09:37:24.147Z,16.88
2018-07-24T09:38:24.370Z,16.88
2018-07-24T09:39:24.169Z,16.88
2018-07-24T09:40:24.373Z,16.88
2018-07-24T09:41:24.197Z,16.88
2018-07-24T09:42:24.188Z,16.88
2018-07-24T09:43:24.389Z,16.88
2018-07-24T09:44:24.429Z,16.88
2018-07-24T09:45:24.429Z,16.88
2018-07-24T09:46:24.221Z,16.88
2018-07-24T09:47:24.242Z,16.88
2018-07-24T09:48:24.237Z,16.88
2018-07-24T09:49:24.247Z,16.88
2018-07-24T09:50:24.243Z,16.88
2018-07-24T09:51:24.472Z,16.88
2018-07-24T09:52:24.253Z,16.88
2018-07-24T09:53:24.259Z,16.88
2018-07-24T09:54:24.266Z,16.88
2018-07-24T09:55:24.275Z,16.88
2018-07-24T09:56:24.538Z,16.88
2018-07-24T09:57:24.285Z,16.88
2018-07-24T09:58:24.301Z,16.88
2018-07-24T09:59:24.351Z,16.88
2018-07-24T10:00:24.310Z,16.88
2018-07-24T10:01:24.314Z,16.88
2018-07-24T10:02:24.323Z,16.88
2018-07-24T10:03:24.533Z,16.88
2018-07-24T10:04:24.551Z,16.88
2018-07-24T10:05:24.419Z,16.88
2018-07-24T10:06:24.356Z,16.88
2018-07-24T10:07:24.357Z,16.88
2018-07-24T10:08:24.395Z,16.88
2018-07-24T10:09:24.379Z,16.88
2018-07-24T10:10:24.578Z,16.88
2018-07-24T10:11:24.384Z,16.88
2018-07-24T10:12:24.393Z,16.88
2018-07-24T10:13:24.670Z,16.88
2018-07-24T10:14:24.408Z,16.88
2018-07-24T10:15:24.417Z,16.88
2018-07-24T10:16:24.428Z,16.88
2018-07-24T10:17:24.428Z,16.88
2018-07-24T10:18:24.436Z,16.88
2018-07-24T10:19:24.442Z,16.88
2018-07-24T10:20:24.452Z,16.88
2018-07-24T10:21:24.457Z,16.88
2018-07-24T10:22:24.536Z,16.88
2018-07-24T10:23:24.672Z,16.88
2018-07-24T10:24:24.560Z,16.88
2018-07-24T10:25:24.499Z,16.88
2018-07-24T10:26:24.694Z,16.88
2018-07-24T10:27:24.513Z,16.88
2018-07-24T10:28:24.508Z,16.88
2018-07-24T10:29:24.718Z,16.88
2018-07-24T10:30:24.555Z,16.88
2018-07-24T10:31:24.543Z,16.88
2018-07-24T10:32:24.738Z,16.88
2018-07-24T10:33:24.757Z,16.88
2018-07-24T10:34:24.560Z,16.88
2018-07-24T10:35:24.561Z,16.88
2018-07-24T10:36:24.802Z,16.88
2018-07-24T10:37:24.581Z,16.88
2018-07-24T10:38:24.795Z,16.88
2018-07-24T10:39:24.601Z,16.88
2018-07-24T10:40:24.595Z,16.88
2018-07-24T10:41:24.614Z,16.88
2018-07-24T10:42:24.609Z,16.88
2018-07-24T10:43:24.822Z,16.88
2018-07-24T10:44:24.633Z,16.88
2018-07-24T10:45:24.646Z,16.88
2018-07-24T10:46:24.842Z,16.88
2018-07-24T10:47:24.673Z,16.88
2018-07-24T10:48:24.650Z,16.88
2018-07-24T10:49:24.956Z,16.88
2018-07-24T10:50:24.670Z,16.88
2018-07-24T10:51:24.699Z,16.88
2018-07-24T10:52:24.698Z,16.88
2018-07-24T10:53:24.703Z,16.88
2018-07-24T10:54:24.707Z,16.88
2018-07-24T10:55:24.704Z,16.88
2018-07-24T10:56:24.713Z,16.88
2018-07-24T10:57:24.730Z,16.88
2018-07-24T10:58:24.747Z,16.88
2018-07-24T10:59:24.747Z,16.88
2018-07-24T11:00:24.740Z,16.88
2018-07-24T11:01:24.953Z,16.88
2018-07-24T11:02:24.776Z,16.88
2018-07-24T11:03:24.778Z,16.88
2018-07-24T11:04:24.782Z,16.88
2018-07-24T11:05:24.825Z,16.88
2018-07-24T11:06:24.786Z,16.88
2018-07-24T11:07:24.799Z,16.88
2018-07-24T11:08:25.003Z,16.88
2018-07-24T11:09:25.015Z,16.88
2018-07-24T11:10:24.818Z,16.88
2018-07-24T11:11:24.826Z,16.88
2018-07-24T11:12:24.834Z,16.88
2018-07-24T11:13:24.838Z,16.88
2018-07-24T11:14:24.845Z,16.88
2018-07-24T11:15:25.090Z,16.88
2018-07-24T11:16:24.892Z,16.88
2018-07-24T11:17:25.085Z,16.88
2018-07-24T11:18:25.094Z,16.88
2018-07-24T11:19:24.895Z,16.88
2018-07-24T11:20:24.893Z,16.88
2018-07-24T11:21:24.901Z,16.88
2018-07-24T11:22:25.258Z,16.88
2018-07-24T11:23:24.930Z,16.88
2018-07-24T11:24:24.932Z,16.88
2018-07-24T11:25:24.947Z,16.88
2018-07-24T11:26:24.939Z,16.88
2018-07-24T11:27:24.956Z,16.88
2018-07-24T11:28:25.026Z,16.88
2018-07-24T11:29:24.964Z,16.88
2018-07-24T11:30:25.192Z,16.88
2018-07-24T11:31:24.977Z,16.88
2018-07-24T11:32:24.998Z,16.88
2018-07-24T11:33:25.073Z,16.88
2018-07-24T11:34:25.236Z,11.25
2018-07-24T11:35:25.253Z,11.25
2018-07-24T11:36:25.036Z,11.25
2018-07-24T11:37:25.039Z,11.25
2018-07-24T11:38:25.041Z,11.25
2018-07-24T11:39:25.255Z,11.25
2018-07-24T11:40:25.057Z,11.25
2018-07-24T11:41:25.070Z,11.25
2018-07-24T11:42:25.265Z,11.25
2018-07-24T11:43:25.299Z,11.25
2018-07-24T11:44:25.095Z,11.25
2018-07-24T11:45:25.291Z,11.25
2018-07-24T11:46:25.140Z,11.25
2018-07-24T11:47:25.132Z,11.25
2018-07-24T11:48:25.135Z,11.25
2018-07-24T11:49:25.118Z,11.25
2018-07-24T11:50:25.129Z,11.25
2018-07-24T11:51:25.158Z,11.25
2018-07-24T11:52:25.349Z,11.25
2018-07-24T11:53:25.353Z,11.25
2018-07-24T11:54:25.156Z,11.25
2018-07-24T11:55:25.178Z,11.25
2018-07-24T11:56:25.181Z,11.25
2018-07-24T11:57:25.186Z,11.25
2018-07-24T11:58:25.188Z,11.25
2018-07-24T11:59:25.197Z,11.25
2018-07-24T12:00:25.209Z,11.25
2018-07-24T12:01:25.212Z,11.25
2018-07-24T12:02:25.221Z,11.25
2018-07-24T12:03:25.233Z,11.25
2018-07-24T12:04:25.438Z,11.25
2018-07-24T12:05:25.446Z,11.25
2018-07-24T12:06:25.252Z,11.25
2018-07-24T12:07:25.482Z,11.25
2018-07-24T12:08:25.266Z,11.25
2018-07-24T12:09:25.274Z,11.25
2018-07-24T12:10:25.284Z,11.25
2018-07-24T12:11:25.306Z,11.25
2018-07-24T12:12:25.311Z,5.63
2018-07-24T12:13:25.318Z,5.63
2018-07-24T12:14:25.325Z,5.63
2018-07-24T12:15:25.322Z,5.63
2018-07-24T12:16:25.330Z,5.63
2018-07-24T12:17:25.347Z,5.63
2018-07-24T12:18:58.562Z,5.63
2018-07-24T12:19:25.402Z,5.63
2018-07-24T12:20:25.380Z,5.63
2018-07-24T12:21:25.369Z,5.63
2018-07-24T12:22:25.379Z,5.63
2018-07-24T12:23:25.391Z,5.63
2018-07-24T12:24:25.411Z,5.63
2018-07-24T12:25:25.402Z,5.63
2018-07-24T12:26:25.410Z,5.63
2018-07-24T12:27:25.416Z,5.63
2018-07-24T12:28:25.469Z,5.63
2018-07-24T12:29:25.433Z,5.63
2018-07-24T12:30:25.646Z,5.63
2018-07-24T12:31:25.451Z,5.63
2018-07-24T12:32:25.458Z,5.63
2018-07-24T12:33:25.465Z,5.63
2018-07-24T12:34:25.487Z,5.63
2018-07-24T12:35:25.494Z,5.63
2018-07-24T12:36:25.491Z,5.63
2018-07-24T12:37:25.500Z,5.63
2018-07-24T12:38:25.520Z,5.63
2018-07-24T12:39:25.525Z,5.63
2018-07-24T12:40:25.755Z,5.63
2018-07-24T12:41:25.542Z,5.63
2018-07-24T12:42:25.740Z,5.63
2018-07-24T12:43:25.827Z,5.63
2018-07-24T12:44:25.553Z,5.63
2018-07-24T12:45:25.565Z,11.25
2018-07-24T12:46:25.568Z,11.25
2018-07-24T12:47:25.588Z,11.25
2018-07-24T12:48:25.602Z,11.25
2018-07-24T12:49:25.603Z,11.25
2018-07-24T12:50:25.828Z,11.25
2018-07-24T12:51:25.610Z,11.25
2018-07-24T12:52:25.625Z,11.25
2018-07-24T12:53:25.629Z,11.25
2018-07-24T12:54:25.636Z,11.25
2018-07-24T12:55:25.647Z,11.25
2018-07-24T12:56:25.652Z,11.25
2018-07-24T12:57:25.672Z,11.25
2018-07-24T12:58:25.866Z,11.25
2018-07-24T12:59:25.678Z,11.25
2018-07-24T13:00:25.684Z,11.25
2018-07-24T13:01:25.693Z,11.25
2018-07-24T13:02:25.700Z,11.25
2018-07-24T13:03:25.736Z,11.25